Time;durP1;ratioP1;P1;durP2;ratioP2;P2;SDS_P1;SDS_P2;PMS_P1;PMS_P2;Temp;Humidity;BMP_temperature;BMP_pressure;BME280_temperature;BME280_humidity;BME280_pressure;Samples;Min_cycle;Max_cycle;Signal;HPM_P1;HPM_P2
2022/07/17 00:01:59;;;;;;;4.57;1.20;;;;;;;16.10;61.61;102413.75;5059602;28;20032;-76
2022/07/17 00:04:25;;;;;;;3.33;1.20;;;;;;;16.05;62.10;102409.94;5058795;28;20125;-76
2022/07/17 00:06:50;;;;;;;3.90;1.15;;;;;;;16.02;62.14;102410.28;5046446;28;20025;-75
2022/07/17 00:09:16;;;;;;;5.35;1.60;;;;;;;15.98;62.12;102406.31;5063398;28;21699;-77
2022/07/17 00:11:41;;;;;;;8.10;1.20;;;;;;;15.95;62.06;102412.66;5041687;28;20040;-76
2022/07/17 00:14:07;;;;;;;3.47;0.82;;;;;;;15.88;62.31;102401.16;5061722;28;20044;-74
2022/07/17 00:16:32;;;;;;;1.20;0.93;;;;;;;15.86;62.50;102410.94;5060993;28;20107;-76
2022/07/17 00:18:58;;;;;;;3.55;1.05;;;;;;;15.83;62.77;102400.81;5057672;28;20025;-76
2022/07/17 00:21:23;;;;;;;5.32;0.70;;;;;;;15.79;62.72;102402.09;5055789;28;20067;-74
2022/07/17 00:23:49;;;;;;;3.85;0.95;;;;;;;15.70;63.20;102411.63;5051547;28;20035;-74
2022/07/17 00:26:14;;;;;;;2.60;1.13;;;;;;;15.68;63.21;102416.19;5042266;28;20039;-76
2022/07/17 00:28:40;;;;;;;6.68;1.63;;;;;;;15.67;63.27;102406.69;5042157;28;20081;-76
2022/07/17 00:31:05;;;;;;;5.43;1.67;;;;;;;15.64;63.44;102405.22;5025168;28;20032;-76
2022/07/17 00:33:32;;;;;;;4.88;1.55;;;;;;;15.62;63.27;102404.53;5041434;28;21838;-75
2022/07/17 00:35:57;;;;;;;3.55;1.77;;;;;;;15.60;63.31;102409.09;5042911;28;20048;-75
2022/07/17 00:38:23;;;;;;;4.15;1.08;;;;;;;15.58;63.62;102414.47;5039086;28;20028;-75
2022/07/17 00:40:48;;;;;;;2.22;0.90;;;;;;;15.53;63.68;102408.03;5040748;28;20040;-76
2022/07/17 00:43:13;;;;;;;4.97;1.33;;;;;;;15.47;64.06;102409.47;5040459;28;20068;-74
2022/07/17 00:45:39;;;;;;;4.03;1.17;;;;;;;15.45;63.97;102402.75;5038330;28;20474;-75
2022/07/17 00:48:08;;;;;;;5.22;1.10;;;;;;;15.42;64.18;102409.09;5041219;28;20036;-77
2022/07/17 00:50:40;;;;;;;2.95;1.20;;;;;;;15.38;64.36;102410.34;5059768;28;20037;-75
2022/07/17 00:53:06;;;;;;;6.85;1.83;;;;;;;15.31;64.58;102409.31;5061677;28;20041;-77
2022/07/17 00:55:33;;;;;;;2.10;1.10;;;;;;;15.21;64.99;102404.16;5062847;28;20040;-76
2022/07/17 00:58:02;;;;;;;3.88;1.42;;;;;;;15.14;65.53;102401.31;5040515;28;20044;-76
2022/07/17 01:00:28;;;;;;;5.90;1.20;;;;;;;15.12;65.57;102407.63;5045371;28;20032;-75
2022/07/17 01:02:54;;;;;;;4.70;1.10;;;;;;;15.08;65.65;102404.50;5026198;28;20036;-76
2022/07/17 01:05:22;;;;;;;4.32;1.10;;;;;;;15.07;65.71;102408.09;5045243;28;20039;-76
2022/07/17 01:07:48;;;;;;;5.85;1.80;;;;;;;15.06;65.71;102405.63;5042927;28;20063;-75
2022/07/17 01:10:16;;;;;;;3.97;1.13;;;;;;;15.06;65.72;102405.63;5040471;28;20033;-76
2022/07/17 01:12:42;;;;;;;2.72;0.95;;;;;;;15.06;65.51;102406.44;5046569;28;20068;-76
2022/07/17 01:15:29;;;;;;;3.33;1.00;;;;;;;15.05;65.64;102407.41;5060199;28;20456;-76
2022/07/17 01:17:55;;;;;;;5.07;1.40;;;;;;;15.02;65.70;102399.06;5040880;28;20086;-76
2022/07/17 01:20:20;;;;;;;4.65;1.60;;;;;;;14.98;66.02;102395.91;5045332;28;20285;-76
2022/07/17 01:22:49;;;;;;;4.00;1.20;;;;;;;14.93;65.90;102396.31;5061508;28;20029;-76
2022/07/17 01:25:16;;;;;;;4.00;1.60;;;;;;;14.90;66.22;102403.63;5048343;28;20033;-76
2022/07/17 01:27:42;;;;;;;5.45;1.63;;;;;;;14.85;66.60;102403.25;5042687;28;20489;-76
2022/07/17 01:30:09;;;;;;;4.43;1.23;;;;;;;14.82;66.41;102400.94;5043429;28;20540;-75
2022/07/17 01:32:37;;;;;;;3.53;1.00;;;;;;;14.78;66.24;102398.59;5064157;28;20029;-76
2022/07/17 01:35:04;;;;;;;4.65;1.20;;;;;;;14.76;66.51;102395.31;5024288;28;20475;-76
2022/07/17 01:37:29;;;;;;;3.40;1.33;;;;;;;14.72;66.65;102403.59;5046330;28;20067;-76
2022/07/17 01:39:56;;;;;;;5.03;1.63;;;;;;;14.67;66.67;102397.97;5061629;28;20043;-75
2022/07/17 01:42:26;;;;;;;5.72;1.38;;;;;;;14.62;66.95;102390.59;5049433;28;20055;-76
2022/07/17 01:44:53;;;;;;;6.47;1.33;;;;;;;14.53;67.33;102392.22;5027980;28;20032;-76
2022/07/17 01:47:19;;;;;;;5.25;1.38;;;;;;;14.48;67.54;102391.00;5031559;28;20151;-76
2022/07/17 01:49:46;;;;;;;2.97;1.00;;;;;;;14.44;67.85;102392.28;5046512;28;20162;-75
2022/07/17 01:52:12;;;;;;;6.22;1.50;;;;;;;14.44;67.65;102394.88;5044330;28;20024;-74
2022/07/17 01:54:38;;;;;;;6.85;1.42;;;;;;;14.41;67.64;102388.16;5045576;28;21750;-76
2022/07/17 01:57:03;;;;;;;5.18;1.15;;;;;;;14.36;67.68;102380.75;5061887;28;20032;-76
2022/07/17 01:59:29;;;;;;;6.78;1.25;;;;;;;14.35;67.80;102383.50;5042793;28;20032;-74
2022/07/17 02:01:54;;;;;;;2.85;1.20;;;;;;;14.32;68.08;102381.19;5044944;28;20036;-75
2022/07/17 02:04:19;;;;;;;2.58;1.15;;;;;;;14.26;67.81;102376.50;5059545;28;20041;-75
2022/07/17 02:06:45;;;;;;;5.70;1.63;;;;;;;14.22;68.09;102373.38;5042776;28;20024;-75
2022/07/17 02:09:10;;;;;;;4.45;1.95;;;;;;;14.21;68.30;102374.34;5045624;28;20244;-76
2022/07/17 02:11:36;;;;;;;5.10;1.63;;;;;;;14.20;68.17;102373.53;5045710;28;20041;-75
2022/07/17 02:14:01;;;;;;;5.90;2.05;;;;;;;14.18;68.34;102375.47;5026333;28;20102;-76
2022/07/17 02:16:27;;;;;;;6.47;1.30;;;;;;;14.16;68.21;102381.75;5044221;28;20040;-75
2022/07/17 02:18:52;;;;;;;1.52;1.02;;;;;;;14.12;68.22;102380.41;5045778;28;20075;-76
2022/07/17 02:21:19;;;;;;;2.95;1.48;;;;;;;14.07;68.75;102388.66;5046600;28;20086;-74
2022/07/17 02:23:44;;;;;;;3.42;1.25;;;;;;;14.02;69.14;102385.66;5044565;28;20547;-74
2022/07/17 02:26:10;;;;;;;5.82;1.50;;;;;;;13.99;68.90;102384.16;5044993;28;20029;-75
2022/07/17 02:28:35;;;;;;;3.72;1.10;;;;;;;13.97;69.21;102382.63;5042545;28;20504;-74
2022/07/17 02:31:01;;;;;;;4.88;1.70;;;;;;;13.92;69.18;102385.66;5029630;28;20075;-76
2022/07/17 02:33:27;;;;;;;3.85;1.75;;;;;;;13.85;69.64;102383.75;5044203;28;20024;-75
2022/07/17 02:35:52;;;;;;;3.92;1.60;;;;;;;13.81;69.73;102381.41;5062690;28;20385;-75
2022/07/17 02:38:18;;;;;;;5.50;1.48;;;;;;;13.76;69.87;102385.41;5043882;28;20101;-75
2022/07/17 02:40:44;;;;;;;6.85;1.52;;;;;;;13.70;70.19;102383.34;5027182;28;20025;-76
2022/07/17 02:43:10;;;;;;;6.78;1.77;;;;;;;13.69;70.45;102377.31;5044300;28;20032;-76
2022/07/17 02:45:35;;;;;;;7.10;2.45;;;;;;;13.66;70.44;102379.38;5042055;28;21713;-76
2022/07/17 02:48:01;;;;;;;7.40;1.58;;;;;;;13.59;70.63;102386.91;5045226;28;20037;-75
2022/07/17 02:50:26;;;;;;;2.53;1.25;;;;;;;13.58;70.76;102393.94;5046519;28;20033;-75
2022/07/17 02:52:52;;;;;;;5.65;1.40;;;;;;;13.58;70.51;102391.31;5044924;28;20032;-75
2022/07/17 02:55:18;;;;;;;3.47;1.40;;;;;;;13.59;70.20;102400.75;5047383;28;20063;-75
2022/07/17 02:57:46;;;;;;;3.72;1.80;;;;;;;13.58;70.42;102395.69;5050007;28;20044;-76
2022/07/17 03:00:13;;;;;;;8.57;1.50;;;;;;;13.53;70.58;102403.13;5043814;28;20466;-76
2022/07/17 03:02:38;;;;;;;2.45;1.17;;;;;;;13.43;71.13;102401.31;5045542;28;20040;-75
2022/07/17 03:05:04;;;;;;;4.18;1.63;;;;;;;13.39;71.24;102406.91;5046842;28;20051;-75
2022/07/17 03:07:30;;;;;;;6.43;1.92;;;;;;;13.29;71.51;102404.28;5043958;28;20036;-76
2022/07/17 03:09:55;;;;;;;4.38;1.30;;;;;;;13.20;72.17;102400.72;5064486;28;20036;-75
2022/07/17 03:12:21;;;;;;;4.30;1.50;;;;;;;13.14;72.35;102403.03;5044625;28;20044;-76
2022/07/17 03:14:46;;;;;;;7.13;1.85;;;;;;;13.10;73.10;102399.84;5063624;28;20489;-75
2022/07/17 03:17:12;;;;;;;4.75;2.20;;;;;;;13.05;73.21;102408.09;5065442;28;20039;-76
2022/07/17 03:19:37;;;;;;;3.10;1.27;;;;;;;12.96;73.65;102408.88;5031316;28;20032;-74
2022/07/17 03:22:03;;;;;;;5.57;1.58;;;;;;;12.91;74.11;102410.22;5042123;28;20417;-76
2022/07/17 03:24:28;;;;;;;5.45;1.58;;;;;;;12.90;74.01;102401.56;5046916;28;20036;-74
2022/07/17 03:26:54;;;;;;;4.30;1.65;;;;;;;12.93;73.49;102401.31;5062107;28;20095;-76
2022/07/17 03:29:19;;;;;;;6.07;1.63;;;;;;;12.95;73.02;102407.22;5047726;28;20060;-76
2022/07/17 03:31:46;;;;;;;7.85;2.17;;;;;;;12.98;73.05;102401.75;5063107;28;20037;-75
2022/07/17 03:34:12;;;;;;;5.78;2.22;;;;;;;13.01;72.43;102409.28;5043975;28;20111;-75
2022/07/17 03:36:37;;;;;;;4.55;1.85;;;;;;;13.01;72.48;102409.28;5063105;28;20090;-76
2022/07/17 03:39:03;;;;;;;4.40;2.20;;;;;;;13.01;72.59;102409.28;5061594;28;20309;-75
2022/07/17 03:41:28;;;;;;;6.65;2.15;;;;;;;13.01;72.48;102401.47;5059964;28;20043;-75
2022/07/17 03:43:54;;;;;;;5.07;1.40;;;;;;;13.02;72.60;102399.72;5062296;28;21352;-74
2022/07/17 03:46:20;;;;;;;2.38;1.38;;;;;;;13.02;72.65;102394.50;5060819;28;20028;-76
2022/07/17 03:48:45;;;;;;;5.60;1.67;;;;;;;13.02;72.52;102392.72;5066758;28;20519;-75
2022/07/17 03:51:11;;;;;;;4.93;2.45;;;;;;;13.00;72.70;102392.03;5044794;28;20047;-75
2022/07/17 03:53:36;;;;;;;3.45;1.58;;;;;;;13.01;72.75;102395.44;5028764;28;20125;-75
2022/07/17 03:56:02;;;;;;;4.28;1.67;;;;;;;13.00;73.07;102388.59;5060510;28;20032;-75
2022/07/17 03:58:28;;;;;;;2.42;1.50;;;;;;;12.94;72.95;102395.16;5064640;28;20480;-76
2022/07/17 04:00:54;;;;;;;6.75;2.10;;;;;;;12.92;73.34;102402.28;5031312;28;20035;-76
2022/07/17 04:03:20;;;;;;;5.63;1.73;;;;;;;12.92;73.35;102415.31;5043435;28;20036;-75
2022/07/17 04:05:45;;;;;;;4.00;1.90;;;;;;;12.92;72.92;102404.03;5045462;28;20555;-74
2022/07/17 04:08:12;;;;;;;6.80;1.92;;;;;;;12.92;72.91;102394.47;5058763;28;20036;-75
2022/07/17 04:10:38;;;;;;;4.90;1.83;;;;;;;12.90;73.10;102392.94;5043489;28;20110;-75
2022/07/17 04:13:04;;;;;;;4.13;1.73;;;;;;;12.88;73.51;102395.69;5051064;28;20041;-75
2022/07/17 04:18:13;;;;;;;8.00;1.60;;;;;;;12.85;73.40;102398.56;5043592;28;20132;-75
2022/07/17 04:20:39;;;;;;;6.00;2.00;;;;;;;12.84;73.88;102408.13;5042986;28;20039;-75
2022/07/17 04:23:05;;;;;;;3.35;1.55;;;;;;;12.84;73.77;102402.91;5065781;28;20024;-75
2022/07/17 04:25:30;;;;;;;5.43;1.65;;;;;;;12.87;73.71;102408.84;5041017;28;20029;-76
2022/07/17 04:27:56;;;;;;;3.65;1.95;;;;;;;12.87;73.82;102409.66;5041273;28;20527;-76
2022/07/17 04:30:22;;;;;;;4.13;1.67;;;;;;;12.84;74.21;102417.72;5059499;28;20028;-76
2022/07/17 04:32:47;;;;;;;4.80;2.28;;;;;;;12.81;74.69;102421.44;5062477;28;20152;-76
2022/07/17 04:35:13;;;;;;;3.22;1.48;;;;;;;12.77;75.48;102427.00;5043440;28;20025;-75
2022/07/17 04:37:38;;;;;;;6.35;1.80;;;;;;;12.75;75.92;102426.31;5060863;28;20032;-76
2022/07/17 04:40:04;;;;;;;2.35;1.83;;;;;;;12.76;76.31;102425.38;5044213;28;20037;-76
2022/07/17 04:42:30;;;;;;;5.63;1.70;;;;;;;12.78;75.92;102423.47;5061002;28;20029;-76
2022/07/17 04:44:55;;;;;;;6.55;1.75;;;;;;;12.81;75.95;102421.44;5059191;28;20036;-76
2022/07/17 04:47:21;;;;;;;11.98;3.53;;;;;;;12.82;76.21;102406.63;5015335;28;20489;-76
2022/07/17 04:49:46;;;;;;;7.57;2.17;;;;;;;12.83;76.21;102416.91;5042193;28;20523;-76
2022/07/17 04:52:12;;;;;;;5.05;2.60;;;;;;;12.90;76.05;102418.97;5041844;28;20032;-76
2022/07/17 04:54:37;;;;;;;8.07;2.10;;;;;;;12.95;75.70;102422.84;5045193;28;20040;-76
2022/07/17 04:57:03;;;;;;;6.47;1.90;;;;;;;13.00;75.81;102415.47;5058971;28;20033;-76
2022/07/17 04:59:28;;;;;;;7.68;2.10;;;;;;;13.09;75.23;102420.81;5043593;28;20047;-77
2022/07/17 05:01:54;;;;;;;5.07;2.00;;;;;;;13.16;74.84;102425.34;5030681;28;20047;-74
2022/07/17 05:04:20;;;;;;;5.75;2.08;;;;;;;13.22;74.48;102421.41;5043337;28;20036;-75
2022/07/17 05:06:46;;;;;;;4.85;2.15;;;;;;;13.25;75.01;102423.75;5035943;28;20032;-74
2022/07/17 05:09:11;;;;;;;9.73;2.42;;;;;;;13.31;75.55;102420.63;5047532;28;20032;-75
2022/07/17 05:11:37;;;;;;;5.93;2.13;;;;;;;13.37;75.81;102430.53;5048590;28;20044;-75
2022/07/17 05:14:03;;;;;;;6.75;2.75;;;;;;;13.35;76.71;102429.00;5046340;28;20036;-75
2022/07/17 05:16:28;;;;;;;5.20;3.17;;;;;;;13.41;76.56;102431.91;5049637;28;20028;-75
2022/07/17 05:18:54;;;;;;;6.65;2.38;;;;;;;13.52;75.81;102425.72;5031595;28;20029;-74
2022/07/17 05:21:19;;;;;;;5.00;2.08;;;;;;;13.66;75.33;102426.31;5037529;28;20462;-76
2022/07/17 05:23:45;;;;;;;7.75;2.40;;;;;;;13.78;74.71;102423.41;5061186;28;20164;-76
2022/07/17 05:26:11;;;;;;;7.38;1.98;;;;;;;13.94;74.44;102437.69;5068142;28;20111;-76
2022/07/17 05:28:36;;;;;;;6.68;2.88;;;;;;;14.08;74.28;102445.06;5044715;28;20036;-74
2022/07/17 05:31:02;;;;;;;6.32;2.65;;;;;;;14.20;74.13;102440.50;5063095;28;20040;-75
2022/07/17 05:33:28;;;;;;;5.70;2.67;;;;;;;14.34;73.81;102450.53;5045842;28;20032;-76
2022/07/17 05:35:53;;;;;;;9.70;3.17;;;;;;;14.43;73.59;102454.09;5043850;28;20071;-76
2022/07/17 05:38:18;;;;;;;11.85;2.97;;;;;;;14.57;73.35;102455.44;5066962;28;20443;-77
2022/07/17 05:40:44;;;;;;;5.95;2.58;;;;;;;14.72;72.97;102464.47;5030925;28;20032;-76
2022/07/17 05:43:09;;;;;;;6.07;2.83;;;;;;;14.88;71.98;102458.63;5045242;28;20036;-77
2022/07/17 05:45:35;;;;;;;10.07;3.10;;;;;;;15.09;71.65;102458.41;5046875;28;20029;-75
2022/07/17 05:48:00;;;;;;;10.57;2.97;;;;;;;15.22;71.06;102452.84;5033955;28;20033;-77
2022/07/17 05:50:26;;;;;;;5.57;2.33;;;;;;;15.40;70.45;102452.03;5062542;28;20032;-77
2022/07/17 05:52:52;;;;;;;4.03;2.28;;;;;;;15.61;69.77;102447.31;5045754;28;20043;-76
2022/07/17 05:55:18;;;;;;;7.55;3.13;;;;;;;15.68;67.32;102445.75;5048778;28;20535;-77
2022/07/17 05:57:43;;;;;;;8.00;2.55;;;;;;;15.94;66.97;102439.81;5030727;28;20032;-77
2022/07/17 06:00:11;;;;;;;12.75;3.03;;;;;;;16.26;65.54;102435.78;5029654;28;20017;-76
2022/07/17 06:02:40;;;;;;;8.00;2.67;;;;;;;16.62;65.12;102440.91;5045817;28;20111;-76
2022/07/17 06:05:06;;;;;;;6.82;2.42;;;;;;;16.93;63.73;102434.19;5046291;28;20127;-76
2022/07/17 06:07:32;;;;;;;3.83;2.13;;;;;;;17.29;62.84;102433.13;5028302;28;20020;-76
2022/07/17 06:09:57;;;;;;;10.52;2.58;;;;;;;17.60;61.37;102440.38;5045550;28;20036;-76
2022/07/17 06:12:23;;;;;;;8.88;2.70;;;;;;;17.80;60.48;102436.47;5030342;28;20017;-76
2022/07/17 06:14:48;;;;;;;6.05;2.38;;;;;;;18.07;59.55;102442.38;5063103;28;20036;-77
2022/07/17 06:17:14;;;;;;;7.38;2.50;;;;;;;18.28;58.65;102437.41;5065619;28;20036;-76
2022/07/17 06:19:39;;;;;;;8.32;2.40;;;;;;;18.43;57.19;102431.47;5048857;28;20090;-76
2022/07/17 06:22:05;;;;;;;11.45;2.13;;;;;;;18.78;56.49;102427.59;5064457;28;21306;-77
2022/07/17 06:24:30;;;;;;;4.80;2.25;;;;;;;18.98;55.90;102430.63;5046157;28;20043;-76
2022/07/17 06:26:55;;;;;;;7.38;2.70;;;;;;;19.30;55.41;102433.25;5064066;28;20020;-77
2022/07/17 06:29:21;;;;;;;6.80;2.65;;;;;;;19.54;54.77;102419.09;5045759;28;20090;-76
2022/07/17 06:31:46;;;;;;;4.93;2.20;;;;;;;19.81;54.62;102417.75;5047211;28;20025;-77
2022/07/17 06:34:12;;;;;;;8.90;2.50;;;;;;;20.18;52.79;102410.81;5043813;28;20032;-76
2022/07/17 06:36:37;;;;;;;5.90;2.30;;;;;;;20.52;51.91;102406.81;5041002;28;20055;-77
2022/07/17 06:39:03;;;;;;;6.72;1.95;;;;;;;20.58;49.53;102406.88;5062931;28;20040;-77
2022/07/17 06:41:28;;;;;;;8.15;2.30;;;;;;;20.75;49.27;102406.72;5044353;28;20507;-76
2022/07/17 06:43:54;;;;;;;5.75;2.65;;;;;;;20.84;49.22;102400.34;5048185;28;20048;-77
2022/07/17 06:46:19;;;;;;;31.10;10.35;;;;;;;20.95;48.88;102409.59;5043004;28;20036;-75
2022/07/17 06:48:45;;;;;;;21.38;3.92;;;;;;;21.32;48.27;102400.63;5057946;28;20152;-77
2022/07/17 06:51:10;;;;;;;8.57;2.00;;;;;;;21.39;47.64;102406.78;5025742;28;20032;-76
2022/07/17 06:53:35;;;;;;;6.97;2.00;;;;;;;21.64;47.19;102401.13;5046876;28;20493;-77
2022/07/17 06:56:01;;;;;;;7.63;2.05;;;;;;;21.81;46.62;102395.56;5048682;28;20117;-77
2022/07/17 06:58:26;;;;;;;5.57;1.77;;;;;;;22.13;45.99;102394.13;5043964;28;20035;-78
2022/07/17 07:00:52;;;;;;;8.57;1.73;;;;;;;22.46;45.14;102397.00;5046756;28;20016;-76
2022/07/17 07:03:17;;;;;;;10.18;2.95;;;;;;;22.71;44.64;102391.19;5044199;28;20080;-76
2022/07/17 07:05:43;;;;;;;6.10;1.60;;;;;;;22.97;44.15;102403.66;5030989;28;20040;-77
2022/07/17 07:08:09;;;;;;;4.18;1.90;;;;;;;23.07;43.27;102406.75;5055976;28;20043;-77
2022/07/17 07:10:34;;;;;;;9.02;2.15;;;;;;;23.23;42.86;102402.13;5059343;28;20516;-76
2022/07/17 07:13:00;;;;;;;6.60;2.28;;;;;;;23.30;42.56;102410.84;5041972;28;20196;-75
2022/07/17 07:15:26;;;;;;;7.47;2.22;;;;;;;23.41;42.38;102404.97;5061404;28;20500;-77
2022/07/17 07:17:51;;;;;;;8.60;2.35;;;;;;;23.41;42.39;102407.59;5038700;28;20728;-77
2022/07/17 07:20:17;;;;;;;4.97;2.30;;;;;;;23.68;41.31;102389.91;5048752;28;20044;-77
2022/07/17 07:22:42;;;;;;;10.52;1.92;;;;;;;23.67;41.66;102390.91;5047485;28;20075;-76
2022/07/17 07:25:08;;;;;;;9.00;2.00;;;;;;;24.20;41.31;102390.00;5064346;28;20032;-78
2022/07/17 07:27:34;;;;;;;5.40;1.63;;;;;;;24.58;40.75;102397.25;5028235;28;20884;-77
2022/07/17 07:29:59;;;;;;;4.68;1.35;;;;;;;24.93;39.87;102398.69;5047089;28;20056;-78
2022/07/17 07:32:25;;;;;;;8.30;2.30;;;;;;;25.16;39.27;102406.91;5051160;28;20035;-77
2022/07/17 07:34:50;;;;;;;6.32;2.10;;;;;;;24.86;39.19;102412.81;5048093;28;20032;-77
2022/07/17 07:37:16;;;;;;;4.93;1.60;;;;;;;25.18;39.05;102412.00;5036991;28;20098;-78
2022/07/17 07:39:41;;;;;;;5.90;2.17;;;;;;;25.45;38.75;102416.13;5068492;28;20028;-78
2022/07/17 07:42:07;;;;;;;5.90;1.77;;;;;;;25.57;37.76;102421.53;5062084;28;20024;-78
2022/07/17 07:44:32;;;;;;;7.30;2.22;;;;;;;25.59;38.13;102421.31;5047266;28;20578;-77
2022/07/17 07:46:58;;;;;;;9.32;2.10;;;;;;;25.90;37.61;102414.28;5046469;28;20021;-79
2022/07/17 07:49:24;;;;;;;9.43;2.47;;;;;;;26.08;37.08;102414.31;5049699;28;20092;-79
2022/07/17 07:51:49;;;;;;;8.00;1.65;;;;;;;26.18;36.71;102427.91;5048876;28;20029;-77
2022/07/17 07:54:15;;;;;;;6.82;1.92;;;;;;;26.54;36.09;102436.91;5029567;28;20040;-78
2022/07/17 07:56:40;;;;;;;4.05;1.50;;;;;;;26.67;35.93;102433.28;5048326;28;20037;-77
2022/07/17 07:59:06;;;;;;;7.05;2.40;;;;;;;27.14;35.31;102436.13;5045359;28;20052;-77
2022/07/17 08:01:31;;;;;;;5.22;1.75;;;;;;;27.35;34.25;102433.97;5066142;28;20039;-79
2022/07/17 08:03:57;;;;;;;5.13;1.25;;;;;;;27.24;34.35;102445.38;5048063;28;20051;-79
2022/07/17 08:06:22;;;;;;;7.93;1.48;;;;;;;27.40;34.16;102439.41;5044771;28;20020;-78
2022/07/17 08:08:48;;;;;;;6.57;1.67;;;;;;;27.06;34.75;102444.41;5031672;28;20031;-80
2022/07/17 08:11:14;;;;;;;4.90;1.30;;;;;;;27.25;35.37;102453.16;5046471;28;20028;-78
2022/07/17 08:13:40;;;;;;;7.22;1.55;;;;;;;27.47;34.33;102440.13;5042599;28;20040;-79
2022/07/17 08:16:06;;;;;;;5.38;1.42;;;;;;;27.65;34.17;102435.72;5047245;28;20041;-81
2022/07/17 08:18:32;;;;;;;14.43;7.65;;;;;;;27.57;34.39;102437.69;5061650;28;20024;-79
2022/07/17 08:20:58;;;;;;;9.07;2.33;;;;;;;27.55;35.05;102441.63;5045820;28;20397;-78
2022/07/17 08:23:23;;;;;;;9.50;2.17;;;;;;;27.63;34.78;102445.81;5043418;28;20021;-78
2022/07/17 08:25:49;;;;;;;9.15;1.40;;;;;;;27.07;35.19;102454.03;5030232;28;20028;-78
2022/07/17 08:28:14;;;;;;;4.35;1.40;;;;;;;26.84;35.22;102445.94;5062479;28;20401;-78
2022/07/17 08:30:40;;;;;;;4.15;1.13;;;;;;;26.76;34.56;102445.22;5045606;28;20108;-78
2022/07/17 08:33:08;;;;;;;3.42;1.20;;;;;;;27.22;33.85;102442.13;5028099;28;20043;-79
2022/07/17 08:35:34;;;;;;;5.10;1.52;;;;;;;27.41;32.41;102442.88;5061575;28;20940;-78
2022/07/17 08:38:01;;;;;;;5.35;1.20;;;;;;;27.10;33.24;102440.25;5053229;28;20020;-78
2022/07/17 08:40:29;;;;;;;15.20;1.63;;;;;;;27.07;33.31;102438.06;5039217;28;20024;-79
2022/07/17 08:42:56;;;;;;;4.10;1.00;;;;;;;27.47;33.28;102439.31;5052546;28;20089;-78
2022/07/17 08:45:22;;;;;;;3.13;1.25;;;;;;;27.57;32.85;102437.69;5050703;28;20043;-78
2022/07/17 08:47:50;;;;;;;5.30;1.10;;;;;;;27.45;32.70;102436.06;5038907;28;20042;-79
2022/07/17 08:50:18;;;;;;;3.75;1.25;;;;;;;27.37;32.67;102430.03;5072258;28;20029;-77
2022/07/17 08:52:44;;;;;;;5.72;1.42;;;;;;;27.45;32.76;102434.22;5053735;28;20057;-78
2022/07/17 08:55:13;;;;;;;4.97;1.17;;;;;;;27.36;33.31;102428.41;5055398;28;20370;-78
2022/07/17 08:57:44;;;;;;;4.75;1.70;;;;;;;27.42;33.73;102425.88;5054356;28;20923;-78
2022/07/17 09:00:12;;;;;;;5.75;1.58;;;;;;;27.48;33.84;102431.09;5069943;28;20028;-78
2022/07/17 09:02:38;;;;;;;4.53;1.23;;;;;;;27.18;34.37;102433.78;5069371;28;20057;-79
2022/07/17 09:05:04;;;;;;;2.75;1.25;;;;;;;26.98;33.93;102420.78;5072987;28;20029;-78
2022/07/17 09:07:30;;;;;;;5.20;1.85;;;;;;;27.56;33.52;102422.75;5053485;28;20028;-78
2022/07/17 09:09:56;;;;;;;4.93;1.15;;;;;;;27.74;32.89;102416.50;5072690;28;20102;-78
2022/07/17 09:12:29;;;;;;;4.95;1.20;;;;;;;28.04;32.53;102418.22;5050653;28;20482;-80
2022/07/17 09:14:55;;;;;;;4.55;1.38;;;;;;;28.40;32.48;102426.94;5070750;28;20082;-78
2022/07/17 09:17:22;;;;;;;3.20;1.10;;;;;;;27.24;33.57;102416.91;5054456;28;20025;-78
2022/07/17 09:19:48;;;;;;;5.88;1.27;;;;;;;27.57;33.75;102416.38;5037165;28;20040;-78
2022/07/17 09:22:15;;;;;;;5.78;1.42;;;;;;;27.84;33.57;102421.25;5073922;28;20031;-79
2022/07/17 09:24:44;;;;;;;3.33;1.45;;;;;;;28.00;32.50;102425.06;5054814;28;20032;-80
2022/07/17 09:27:13;;;;;;;6.57;1.48;;;;;;;27.95;32.13;102425.78;5077327;28;20032;-79
2022/07/17 09:29:56;;;;;;;5.97;1.33;;;;;;;28.00;31.98;102419.75;5053024;28;20634;-78
2022/07/17 09:32:23;;;;;;;4.50;1.20;;;;;;;27.31;32.76;102419.47;5052005;28;20032;-77
2022/07/17 09:34:51;;;;;;;8.40;1.30;;;;;;;27.63;33.09;102427.16;5054978;28;20043;-80
2022/07/17 09:37:16;;;;;;;6.53;1.88;;;;;;;27.83;32.47;102424.16;5055218;28;20211;-77
2022/07/17 09:39:43;;;;;;;5.85;1.50;;;;;;;27.70;31.72;102425.19;5058373;28;20548;-78
2022/07/17 09:42:09;;;;;;;6.78;1.10;;;;;;;28.11;31.34;102424.25;5055636;28;20064;-78
2022/07/17 09:44:35;;;;;;;6.22;1.25;;;;;;;28.25;31.28;102423.97;5053740;28;20063;-78
2022/07/17 09:47:01;;;;;;;4.85;1.30;;;;;;;28.33;31.41;102423.59;5076187;28;20028;-78
2022/07/17 09:49:28;;;;;;;5.40;2.20;;;;;;;28.28;30.58;102419.00;5053532;28;20304;-80
2022/07/17 09:51:54;;;;;;;4.60;1.27;;;;;;;28.32;31.39;102428.13;5054882;28;20048;-80
2022/07/17 09:54:22;;;;;;;4.97;0.82;;;;;;;28.38;31.21;102421.03;5050224;28;20028;-77
2022/07/17 09:56:50;;;;;;;5.05;1.23;;;;;;;27.90;31.74;102423.00;5050201;28;20496;-78
2022/07/17 09:59:17;;;;;;;9.60;1.42;;;;;;;27.53;31.78;102425.88;5052667;28;20025;-78
2022/07/17 10:01:44;;;;;;;4.07;1.75;;;;;;;27.26;32.92;102430.03;5064551;28;20813;-79
2022/07/17 10:04:10;;;;;;;4.32;1.20;;;;;;;27.59;33.09;102426.81;5049264;28;20489;-78
2022/07/17 10:06:37;;;;;;;8.48;1.45;;;;;;;27.69;32.23;102423.56;5065520;28;20683;-80
2022/07/17 10:09:04;;;;;;;8.38;1.60;;;;;;;27.42;32.29;102417.88;5071910;28;20068;-79
2022/07/17 10:11:33;;;;;;;8.10;1.95;;;;;;;26.97;33.26;102425.31;5035414;28;20082;-78
2022/07/17 10:14:05;;;;;;;4.10;1.40;;;;;;;27.43;33.24;102427.50;5050910;28;20054;-79
2022/07/17 10:16:32;;;;;;;4.40;1.48;;;;;;;27.82;32.83;102428.69;5033374;28;20047;-79
2022/07/17 10:19:00;;;;;;;3.85;1.35;;;;;;;27.91;32.13;102427.28;5066652;28;20482;-83
2022/07/17 10:21:27;;;;;;;5.15;1.15;;;;;;;28.29;31.23;102425.97;5051627;28;20028;-79
2022/07/17 10:23:53;;;;;;;4.85;1.30;;;;;;;27.76;30.93;102422.41;5050310;28;20132;-77
2022/07/17 10:26:54;;;;;;;10.48;1.60;;;;;;;27.93;32.50;102435.03;5050935;28;20528;-78
2022/07/17 10:29:31;;;;;;;7.60;1.33;;;;;;;28.26;31.76;102431.75;4968700;28;20038;-77
2022/07/17 10:31:59;;;;;;;4.45;1.60;;;;;;;28.01;31.42;102429.38;5040764;28;20051;-78
2022/07/17 10:34:38;;;;;;;5.97;1.75;;;;;;;28.36;30.67;102436.47;5049812;28;20481;-75
2022/07/17 10:37:24;;;;;;;6.40;1.95;;;;;;;28.11;31.65;102428.78;5028143;28;20040;-78
2022/07/17 10:40:02;;;;;;;5.60;1.83;;;;;;;28.26;31.23;102430.94;5050575;28;20035;-77
2022/07/17 10:42:41;;;;;;;8.13;1.40;;;;;;;27.90;30.19;102430.19;5047995;28;20058;-78
2022/07/17 10:45:13;;;;;;;4.57;1.23;;;;;;;27.72;31.20;102431.09;5040976;28;20036;-80
2022/07/17 10:48:00;;;;;;;4.70;1.30;;;;;;;27.81;30.87;102413.72;5048549;28;20477;-78
2022/07/17 10:50:39;;;;;;;7.57;1.60;;;;;;;27.99;30.60;102420.81;5068122;28;20501;-78
2022/07/17 10:53:25;;;;;;;4.13;1.60;;;;;;;27.91;29.88;102416.63;5026731;28;20037;-78
2022/07/17 10:56:00;;;;;;;11.32;1.92;;;;;;;28.05;31.74;102417.19;5048865;28;20225;-79
2022/07/17 10:58:28;;;;;;;6.38;1.70;;;;;;;28.25;30.43;102427.44;5049779;28;20032;-79
2022/07/17 11:01:00;;;;;;;7.97;1.55;;;;;;;27.95;30.44;102424.97;5046729;28;20401;-79
2022/07/17 11:03:26;;;;;;;7.32;1.95;;;;;;;28.14;30.13;102418.47;5034439;28;20039;-78
2022/07/17 11:05:52;;;;;;;4.72;1.58;;;;;;;28.08;30.29;102422.03;5051063;28;20119;-78
2022/07/17 11:08:18;;;;;;;3.53;1.42;;;;;;;27.75;30.22;102418.13;5050624;28;20035;-78
2022/07/17 11:10:46;;;;;;;4.68;1.65;;;;;;;27.77;30.00;102417.91;5033208;28;20535;-77
2022/07/17 11:13:15;;;;;;;5.03;2.22;;;;;;;28.04;29.97;102412.91;5064798;28;20033;-78
2022/07/17 11:15:43;;;;;;;3.38;1.20;;;;;;;28.34;29.53;102407.38;5061609;28;20067;-80
2022/07/17 11:18:20;;;;;;;2.78;1.17;;;;;;;28.38;30.21;102405.03;5046497;28;20051;-78
2022/07/17 11:20:51;;;;;;;2.38;1.10;;;;;;;28.77;29.33;102402.59;5064577;28;20032;-76
2022/07/17 11:23:18;;;;;;;5.47;1.75;;;;;;;28.88;29.14;102409.72;5068009;28;20111;-79
2022/07/17 11:26:02;;;;;;;2.53;1.00;;;;;;;29.00;28.13;102406.97;5046985;28;20040;-77